sensor_id;sensor_type;location;lat;lon;timestamp;P1;durP1;ratioP1;P2;durP2;ratioP2
1679;SDS011;838;51.794;12.258;2023-03-01T00:01:25;29.40;;;15.57;;
1679;SDS011;838;51.794;12.258;2023-03-01T00:03:53;28.43;;;16.23;;
1679;SDS011;838;51.794;12.258;2023-03-01T00:06:20;27.40;;;16.73;;
1679;SDS011;838;51.794;12.258;2023-03-01T00:08:46;20.93;;;14.80;;
1679;SDS011;838;51.794;12.258;2023-03-01T00:11:17;22.30;;;15.63;;
1679;SDS011;838;51.794;12.258;2023-03-01T00:13:45;28.33;;;16.50;;
1679;SDS011;838;51.794;12.258;2023-03-01T00:16:17;27.20;;;16.23;;
1679;SDS011;838;51.794;12.258;2023-03-01T00:18:47;25.87;;;14.77;;
1679;SDS011;838;51.794;12.258;2023-03-01T00:21:13;26.20;;;15.33;;
1679;SDS011;838;51.794;12.258;2023-03-01T00:23:40;32.17;;;16.70;;
1679;SDS011;838;51.794;12.258;2023-03-01T00:26:07;29.80;;;17.80;;
1679;SDS011;838;51.794;12.258;2023-03-01T00:28:34;25.40;;;17.03;;
1679;SDS011;838;51.794;12.258;2023-03-01T00:31:07;30.30;;;16.87;;
1679;SDS011;838;51.794;12.258;2023-03-01T00:33:38;26.07;;;16.87;;
1679;SDS011;838;51.794;12.258;2023-03-01T00:36:04;29.80;;;17.90;;
1679;SDS011;838;51.794;12.258;2023-03-01T00:38:34;22.10;;;16.30;;
1679;SDS011;838;51.794;12.258;2023-03-01T00:41:09;24.17;;;16.30;;
1679;SDS011;838;51.794;12.258;2023-03-01T00:43:39;23.23;;;15.47;;
1679;SDS011;838;51.794;12.258;2023-03-01T00:46:08;23.70;;;16.50;;
1679;SDS011;838;51.794;12.258;2023-03-01T00:48:39;23.47;;;14.40;;
1679;SDS011;838;51.794;12.258;2023-03-01T00:51:10;19.20;;;13.63;;
1679;SDS011;838;51.794;12.258;2023-03-01T00:53:38;20.43;;;13.57;;
1679;SDS011;838;51.794;12.258;2023-03-01T00:56:04;19.60;;;13.30;;
1679;SDS011;838;51.794;12.258;2023-03-01T00:58:32;19.93;;;13.03;;
1679;SDS011;838;51.794;12.258;2023-03-01T01:00:59;24.87;;;13.00;;
1679;SDS011;838;51.794;12.258;2023-03-01T01:03:25;17.43;;;11.57;;
1679;SDS011;838;51.794;12.258;2023-03-01T01:05:51;19.07;;;13.40;;
1679;SDS011;838;51.794;12.258;2023-03-01T01:08:18;23.87;;;13.90;;
1679;SDS011;838;51.794;12.258;2023-03-01T01:10:44;25.83;;;15.67;;
1679;SDS011;838;51.794;12.258;2023-03-01T01:13:11;26.27;;;13.30;;
1679;SDS011;838;51.794;12.258;2023-03-01T01:15:43;18.30;;;14.70;;
1679;SDS011;838;51.794;12.258;2023-03-01T01:18:23;22.13;;;14.50;;
1679;SDS011;838;51.794;12.258;2023-03-01T01:20:52;24.50;;;15.07;;
1679;SDS011;838;51.794;12.258;2023-03-01T01:23:20;20.70;;;14.10;;
1679;SDS011;838;51.794;12.258;2023-03-01T01:26:08;21.60;;;13.80;;
1679;SDS011;838;51.794;12.258;2023-03-01T01:28:39;23.50;;;14.37;;
1679;SDS011;838;51.794;12.258;2023-03-01T01:31:05;23.23;;;14.30;;
1679;SDS011;838;51.794;12.258;2023-03-01T01:33:32;17.10;;;13.47;;
1679;SDS011;838;51.794;12.258;2023-03-01T01:36:12;20.67;;;13.70;;
1679;SDS011;838;51.794;12.258;2023-03-01T01:38:38;20.97;;;12.80;;
1679;SDS011;838;51.794;12.258;2023-03-01T01:41:10;17.07;;;12.97;;
1679;SDS011;838;51.794;12.258;2023-03-01T01:43:39;20.40;;;13.73;;
1679;SDS011;838;51.794;12.258;2023-03-01T01:49:02;19.20;;;12.50;;
1679;SDS011;838;51.794;12.258;2023-03-01T01:51:32;19.27;;;12.93;;
1679;SDS011;838;51.794;12.258;2023-03-01T01:54:03;24.50;;;15.20;;
1679;SDS011;838;51.794;12.258;2023-03-01T01:56:36;20.13;;;12.23;;
1679;SDS011;838;51.794;12.258;2023-03-01T01:59:04;29.83;;;13.47;;
1679;SDS011;838;51.794;12.258;2023-03-01T02:01:33;22.00;;;15.00;;
1679;SDS011;838;51.794;12.258;2023-03-01T02:03:59;19.03;;;12.87;;
1679;SDS011;838;51.794;12.258;2023-03-01T02:06:46;23.30;;;13.70;;
1679;SDS011;838;51.794;12.258;2023-03-01T02:09:16;19.47;;;12.03;;
1679;SDS011;838;51.794;12.258;2023-03-01T02:11:51;22.70;;;14.23;;
1679;SDS011;838;51.794;12.258;2023-03-01T02:14:26;20.67;;;14.10;;
1679;SDS011;838;51.794;12.258;2023-03-01T02:17:02;19.33;;;12.70;;
1679;SDS011;838;51.794;12.258;2023-03-01T02:19:43;18.63;;;11.83;;
1679;SDS011;838;51.794;12.258;2023-03-01T02:22:32;19.47;;;11.30;;
1679;SDS011;838;51.794;12.258;2023-03-01T02:28:58;18.83;;;11.30;;
1679;SDS011;838;51.794;12.258;2023-03-01T02:31:24;22.33;;;12.53;;
1679;SDS011;838;51.794;12.258;2023-03-01T02:34:32;19.23;;;12.60;;
1679;SDS011;838;51.794;12.258;2023-03-01T02:37:17;19.03;;;11.83;;
1679;SDS011;838;51.794;12.258;2023-03-01T02:39:51;19.40;;;12.43;;
1679;SDS011;838;51.794;12.258;2023-03-01T02:43:00;20.77;;;12.37;;
1679;SDS011;838;51.794;12.258;2023-03-01T02:46:06;17.33;;;11.10;;
1679;SDS011;838;51.794;12.258;2023-03-01T03:03:04;15.70;;;10.77;;
1679;SDS011;838;51.794;12.258;2023-03-01T03:05:41;23.10;;;11.17;;
1679;SDS011;838;51.794;12.258;2023-03-01T03:08:33;17.43;;;10.37;;
1679;SDS011;838;51.794;12.258;2023-03-01T03:11:05;14.90;;;10.77;;
1679;SDS011;838;51.794;12.258;2023-03-01T03:13:40;14.03;;;10.07;;
1679;SDS011;838;51.794;12.258;2023-03-01T03:16:14;15.33;;;9.90;;
1679;SDS011;838;51.794;12.258;2023-03-01T03:26:17;20.70;;;10.67;;
1679;SDS011;838;51.794;12.258;2023-03-01T03:28:43;15.40;;;10.83;;
1679;SDS011;838;51.794;12.258;2023-03-01T03:31:49;15.63;;;10.30;;
1679;SDS011;838;51.794;12.258;2023-03-01T03:34:52;18.73;;;10.60;;
1679;SDS011;838;51.794;12.258;2023-03-01T03:51:01;18.70;;;11.63;;
1679;SDS011;838;51.794;12.258;2023-03-01T03:56:57;14.00;;;9.73;;
1679;SDS011;838;51.794;12.258;2023-03-01T03:59:47;14.67;;;9.73;;
1679;SDS011;838;51.794;12.258;2023-03-01T04:02:22;18.67;;;9.97;;
1679;SDS011;838;51.794;12.258;2023-03-01T04:04:53;17.07;;;10.60;;
1679;SDS011;838;51.794;12.258;2023-03-01T04:07:23;16.23;;;10.83;;
1679;SDS011;838;51.794;12.258;2023-03-01T04:10:04;17.07;;;11.27;;
1679;SDS011;838;51.794;12.258;2023-03-01T04:12:42;13.37;;;10.07;;
1679;SDS011;838;51.794;12.258;2023-03-01T04:15:11;18.10;;;10.40;;
1679;SDS011;838;51.794;12.258;2023-03-01T04:17:40;14.17;;;10.10;;
1679;SDS011;838;51.794;12.258;2023-03-01T04:22:59;14.27;;;9.27;;
1679;SDS011;838;51.794;12.258;2023-03-01T04:25:36;12.67;;;8.47;;
1679;SDS011;838;51.794;12.258;2023-03-01T04:31:27;14.40;;;10.13;;
1679;SDS011;838;51.794;12.258;2023-03-01T04:33:59;18.00;;;10.30;;
1679;SDS011;838;51.794;12.258;2023-03-01T04:37:08;12.63;;;8.23;;
1679;SDS011;838;51.794;12.258;2023-03-01T04:40:22;16.53;;;9.20;;
1679;SDS011;838;51.794;12.258;2023-03-01T04:42:57;13.00;;;9.00;;
1679;SDS011;838;51.794;12.258;2023-03-01T04:45:46;12.07;;;9.10;;
1679;SDS011;838;51.794;12.258;2023-03-01T04:57:43;14.03;;;8.80;;
1679;SDS011;838;51.794;12.258;2023-03-01T05:03:01;19.63;;;10.30;;
1679;SDS011;838;51.794;12.258;2023-03-01T05:06:16;17.03;;;8.90;;
1679;SDS011;838;51.794;12.258;2023-03-01T05:09:05;13.93;;;8.73;;
1679;SDS011;838;51.794;12.258;2023-03-01T05:15:20;19.57;;;10.07;;
1679;SDS011;838;51.794;12.258;2023-03-01T05:22:18;13.87;;;8.50;;
1679;SDS011;838;51.794;12.258;2023-03-01T05:31:45;13.90;;;8.80;;
1679;SDS011;838;51.794;12.258;2023-03-01T05:34:14;15.43;;;9.43;;
1679;SDS011;838;51.794;12.258;2023-03-01T05:37:20;12.87;;;8.20;;
1679;SDS011;838;51.794;12.258;2023-03-01T05:40:13;13.33;;;9.07;;
1679;SDS011;838;51.794;12.258;2023-03-01T05:46:40;13.13;;;8.80;;
1679;SDS011;838;51.794;12.258;2023-03-01T05:53:45;18.23;;;8.80;;
1679;SDS011;838;51.794;12.258;2023-03-01T05:56:44;16.17;;;9.20;;
1679;SDS011;838;51.794;12.258;2023-03-01T06:00:22;11.60;;;8.30;;
1679;SDS011;838;51.794;12.258;2023-03-01T06:03:19;11.67;;;8.90;;
1679;SDS011;838;51.794;12.258;2023-03-01T06:09:36;14.47;;;8.83;;
1679;SDS011;838;51.794;12.258;2023-03-01T06:16:15;18.80;;;10.67;;
1679;SDS011;838;51.794;12.258;2023-03-01T06:18:41;11.40;;;8.80;;
1679;SDS011;838;51.794;12.258;2023-03-01T06:21:09;14.30;;;9.57;;
1679;SDS011;838;51.794;12.258;2023-03-01T06:23:38;15.10;;;9.53;;
1679;SDS011;838;51.794;12.258;2023-03-01T06:26:05;16.70;;;9.67;;
1679;SDS011;838;51.794;12.258;2023-03-01T06:28:32;17.60;;;11.33;;
1679;SDS011;838;51.794;12.258;2023-03-01T06:30:58;17.07;;;10.00;;
1679;SDS011;838;51.794;12.258;2023-03-01T06:33:23;16.33;;;10.00;;
1679;SDS011;838;51.794;12.258;2023-03-01T06:35:50;15.17;;;9.60;;
1679;SDS011;838;51.794;12.258;2023-03-01T06:38:16;16.37;;;10.13;;
1679;SDS011;838;51.794;12.258;2023-03-01T06:40:43;20.17;;;11.63;;
1679;SDS011;838;51.794;12.258;2023-03-01T06:43:09;20.60;;;10.00;;
1679;SDS011;838;51.794;12.258;2023-03-01T06:45:36;14.77;;;9.70;;
1679;SDS011;838;51.794;12.258;2023-03-01T06:48:05;14.80;;;9.53;;
1679;SDS011;838;51.794;12.258;2023-03-01T06:50:32;13.47;;;9.27;;
1679;SDS011;838;51.794;12.258;2023-03-01T06:52:58;13.60;;;9.33;;
1679;SDS011;838;51.794;12.258;2023-03-01T06:55:24;16.97;;;9.80;;
1679;SDS011;838;51.794;12.258;2023-03-01T06:57:57;14.23;;;10.20;;
1679;SDS011;838;51.794;12.258;2023-03-01T07:00:23;14.67;;;9.87;;
1679;SDS011;838;51.794;12.258;2023-03-01T07:02:49;19.80;;;11.03;;
1679;SDS011;838;51.794;12.258;2023-03-01T07:05:15;15.70;;;10.83;;
1679;SDS011;838;51.794;12.258;2023-03-01T07:07:41;11.33;;;8.97;;
1679;SDS011;838;51.794;12.258;2023-03-01T07:10:07;13.60;;;9.53;;
1679;SDS011;838;51.794;12.258;2023-03-01T07:12:34;15.50;;;9.40;;
1679;SDS011;838;51.794;12.258;2023-03-01T07:14:59;15.70;;;10.40;;
1679;SDS011;838;51.794;12.258;2023-03-01T07:17:25;17.23;;;9.77;;
1679;SDS011;838;51.794;12.258;2023-03-01T07:19:51;17.83;;;10.70;;
1679;SDS011;838;51.794;12.258;2023-03-01T07:22:17;18.33;;;10.50;;
1679;SDS011;838;51.794;12.258;2023-03-01T07:24:42;12.90;;;9.57;;
1679;SDS011;838;51.794;12.258;2023-03-01T07:27:09;16.17;;;9.63;;
1679;SDS011;838;51.794;12.258;2023-03-01T07:29:35;16.83;;;10.30;;
1679;SDS011;838;51.794;12.258;2023-03-01T07:32:04;15.20;;;9.47;;
1679;SDS011;838;51.794;12.258;2023-03-01T07:34:30;13.23;;;8.93;;
1679;SDS011;838;51.794;12.258;2023-03-01T07:36:56;13.13;;;9.17;;
1679;SDS011;838;51.794;12.258;2023-03-01T07:39:22;14.77;;;9.37;;
1679;SDS011;838;51.794;12.258;2023-03-01T07:41:48;15.80;;;10.57;;
1679;SDS011;838;51.794;12.258;2023-03-01T07:44:14;16.60;;;11.60;;
1679;SDS011;838;51.794;12.258;2023-03-01T07:46:41;15.73;;;10.93;;
1679;SDS011;838;51.794;12.258;2023-03-01T07:49:07;14.97;;;9.23;;
1679;SDS011;838;51.794;12.258;2023-03-01T07:51:32;13.60;;;9.27;;
1679;SDS011;838;51.794;12.258;2023-03-01T07:53:58;10.00;;;7.73;;
1679;SDS011;838;51.794;12.258;2023-03-01T07:56:24;9.83;;;7.00;;
1679;SDS011;838;51.794;12.258;2023-03-01T07:58:49;10.10;;;7.13;;
1679;SDS011;838;51.794;12.258;2023-03-01T08:01:17;10.67;;;8.07;;
1679;SDS011;838;51.794;12.258;2023-03-01T08:03:44;12.23;;;7.73;;
1679;SDS011;838;51.794;12.258;2023-03-01T08:06:10;10.13;;;7.60;;
1679;SDS011;838;51.794;12.258;2023-03-01T08:08:37;11.53;;;8.63;;
1679;SDS011;838;51.794;12.258;2023-03-01T08:11:03;14.00;;;8.17;;
1679;SDS011;838;51.794;12.258;2023-03-01T08:13:30;12.40;;;8.10;;
1679;SDS011;838;51.794;12.258;2023-03-01T08:16:03;10.67;;;7.80;;
1679;SDS011;838;51.794;12.258;2023-03-01T08:18:30;11.63;;;7.63;;
1679;SDS011;838;51.794;12.258;2023-03-01T08:21:00;13.33;;;7.93;;
1679;SDS011;838;51.794;12.258;2023-03-01T08:23:34;8.70;;;7.07;;
1679;SDS011;838;51.794;12.258;2023-03-01T08:26:03;10.53;;;7.43;;
1679;SDS011;838;51.794;12.258;2023-03-01T08:28:34;11.33;;;6.93;;
1679;SDS011;838;51.794;12.258;2023-03-01T08:31:00;8.83;;;6.93;;
1679;SDS011;838;51.794;12.258;2023-03-01T08:33:26;10.97;;;6.97;;
1679;SDS011;838;51.794;12.258;2023-03-01T08:35:52;10.37;;;7.60;;
1679;SDS011;838;51.794;12.258;2023-03-01T08:38:17;7.57;;;6.73;;
1679;SDS011;838;51.794;12.258;2023-03-01T08:40:43;15.30;;;8.00;;
1679;SDS011;838;51.794;12.258;2023-03-01T08:43:08;9.50;;;6.93;;
1679;SDS011;838;51.794;12.258;2023-03-01T08:45:36;12.50;;;6.43;;
1679;SDS011;838;51.794;12.258;2023-03-01T08:48:02;9.17;;;7.17;;
1679;SDS011;838;51.794;12.258;2023-03-01T08:50:27;9.30;;;6.60;;
1679;SDS011;838;51.794;12.258;2023-03-01T08:52:53;11.00;;;7.07;;
1679;SDS011;838;51.794;12.258;2023-03-01T08:55:19;8.53;;;6.57;;
1679;SDS011;838;51.794;12.258;2023-03-01T08:57:44;8.00;;;6.53;;
1679;SDS011;838;51.794;12.258;2023-03-01T09:00:10;11.20;;;7.40;;
1679;SDS011;838;51.794;12.258;2023-03-01T09:02:36;9.40;;;6.97;;
1679;SDS011;838;51.794;12.258;2023-03-01T09:05:03;10.37;;;6.77;;
1679;SDS011;838;51.794;12.258;2023-03-01T09:07:29;8.27;;;6.70;;
1679;SDS011;838;51.794;12.258;2023-03-01T09:09:55;11.47;;;7.37;;
1679;SDS011;838;51.794;12.258;2023-03-01T09:12:21;10.97;;;7.10;;
1679;SDS011;838;51.794;12.258;2023-03-01T09:14:47;10.27;;;6.80;;
1679;SDS011;838;51.794;12.258;2023-03-01T09:17:12;11.20;;;8.40;;
1679;SDS011;838;51.794;12.258;2023-03-01T09:19:38;12.97;;;6.70;;
1679;SDS011;838;51.794;12.258;2023-03-01T09:22:04;11.73;;;7.07;;
1679;SDS011;838;51.794;12.258;2023-03-01T09:24:30;8.93;;;7.47;;
1679;SDS011;838;51.794;12.258;2023-03-01T09:26:56;11.70;;;7.83;;
1679;SDS011;838;51.794;12.258;2023-03-01T09:29:22;10.10;;;8.40;;
1679;SDS011;838;51.794;12.258;2023-03-01T09:31:48;11.87;;;7.30;;
1679;SDS011;838;51.794;12.258;2023-03-01T09:34:14;14.53;;;7.67;;
1679;SDS011;838;51.794;12.258;2023-03-01T09:36:44;12.97;;;7.70;;
1679;SDS011;838;51.794;12.258;2023-03-01T09:39:09;7.97;;;6.70;;
1679;SDS011;838;51.794;12.258;2023-03-01T09:41:38;10.30;;;7.70;;
1679;SDS011;838;51.794;12.258;2023-03-01T09:46:51;10.00;;;7.63;;
1679;SDS011;838;51.794;12.258;2023-03-01T09:49:18;12.77;;;7.97;;
1679;SDS011;838;51.794;12.258;2023-03-01T09:54:58;10.30;;;6.67;;
1679;SDS011;838;51.794;12.258;2023-03-01T09:57:33;12.20;;;7.90;;
1679;SDS011;838;51.794;12.258;2023-03-01T10:00:18;12.70;;;7.80;;
1679;SDS011;838;51.794;12.258;2023-03-01T10:02:51;10.20;;;6.70;;
1679;SDS011;838;51.794;12.258;2023-03-01T10:08:26;7.50;;;5.20;;
1679;SDS011;838;51.794;12.258;2023-03-01T10:10:54;9.50;;;6.63;;
1679;SDS011;838;51.794;12.258;2023-03-01T10:16:03;8.77;;;4.90;;
1679;SDS011;838;51.794;12.258;2023-03-01T10:18:38;9.20;;;6.77;;
1679;SDS011;838;51.794;12.258;2023-03-01T10:21:14;11.63;;;7.10;;
1679;SDS011;838;51.794;12.258;2023-03-01T10:23:41;10.20;;;6.10;;
1679;SDS011;838;51.794;12.258;2023-03-01T10:31:39;9.23;;;5.67;;
1679;SDS011;838;51.794;12.258;2023-03-01T10:39:56;8.23;;;6.83;;
1679;SDS011;838;51.794;12.258;2023-03-01T10:42:47;9.53;;;6.23;;
1679;SDS011;838;51.794;12.258;2023-03-01T10:50:33;11.93;;;6.30;;
1679;SDS011;838;51.794;12.258;2023-03-01T10:53:00;9.73;;;6.10;;
1679;SDS011;838;51.794;12.258;2023-03-01T10:55:35;10.37;;;6.80;;
1679;SDS011;838;51.794;12.258;2023-03-01T11:00:33;11.50;;;6.73;;
1679;SDS011;838;51.794;12.258;2023-03-01T11:03:19;9.90;;;7.00;;
1679;SDS011;838;51.794;12.258;2023-03-01T11:08:41;11.07;;;7.30;;
1679;SDS011;838;51.794;12.258;2023-03-01T11:16:27;12.13;;;7.17;;
1679;SDS011;838;51.794;12.258;2023-03-01T11:24:31;9.70;;;6.60;;
1679;SDS011;838;51.794;12.258;2023-03-01T11:26:58;7.67;;;6.10;;
1679;SDS011;838;51.794;12.258;2023-03-01T11:29:30;10.33;;;6.30;;
1679;SDS011;838;51.794;12.258;2023-03-01T11:31:58;10.67;;;6.60;;
1679;SDS011;838;51.794;12.258;2023-03-01T11:34:34;9.13;;;5.90;;
1679;SDS011;838;51.794;12.258;2023-03-01T11:40:35;9.37;;;6.20;;
1679;SDS011;838;51.794;12.258;2023-03-01T11:46:18;6.63;;;4.77;;
1679;SDS011;838;51.794;12.258;2023-03-01T11:51:48;10.33;;;5.67;;
1679;SDS011;838;51.794;12.258;2023-03-01T11:54:23;6.43;;;4.23;;
1679;SDS011;838;51.794;12.258;2023-03-01T12:16:15;5.17;;;3.50;;
1679;SDS011;838;51.794;12.258;2023-03-01T12:25:16;6.90;;;4.47;;
1679;SDS011;838;51.794;12.258;2023-03-01T12:31:28;7.07;;;3.50;;
1679;SDS011;838;51.794;12.258;2023-03-01T12:50:53;6.67;;;4.20;;
1679;SDS011;838;51.794;12.258;2023-03-01T12:53:25;6.40;;;4.40;;
1679;SDS011;838;51.794;12.258;2023-03-01T12:55:54;5.23;;;3.80;;
1679;SDS011;838;51.794;12.258;2023-03-01T13:01:01;5.90;;;4.40;;
1679;SDS011;838;51.794;12.258;2023-03-01T13:03:36;6.00;;;4.17;;
1679;SDS011;838;51.794;12.258;2023-03-01T13:11:52;8.87;;;4.57;;
1679;SDS011;838;51.794;12.258;2023-03-01T13:16:50;7.30;;;4.50;;
1679;SDS011;838;51.794;12.258;2023-03-01T13:19:26;6.23;;;4.27;;
1679;SDS011;838;51.794;12.258;2023-03-01T13:21:57;7.07;;;5.07;;
1679;SDS011;838;51.794;12.258;2023-03-01T13:29:49;6.33;;;4.10;;
1679;SDS011;838;51.794;12.258;2023-03-01T13:34:48;7.60;;;4.53;;
1679;SDS011;838;51.794;12.258;2023-03-01T13:37:20;5.43;;;3.93;;
1679;SDS011;838;51.794;12.258;2023-03-01T13:39:48;6.47;;;4.40;;
1679;SDS011;838;51.794;12.258;2023-03-01T13:45:01;6.37;;;4.40;;
1679;SDS011;838;51.794;12.258;2023-03-01T13:47:29;7.00;;;5.00;;
1679;SDS011;838;51.794;12.258;2023-03-01T13:49:59;6.03;;;4.33;;
1679;SDS011;838;51.794;12.258;2023-03-01T13:58:21;6.53;;;3.87;;
1679;SDS011;838;51.794;12.258;2023-03-01T14:01:04;6.97;;;3.70;;
1679;SDS011;838;51.794;12.258;2023-03-01T14:03:33;5.20;;;3.90;;
1679;SDS011;838;51.794;12.258;2023-03-01T14:06:07;6.20;;;4.40;;
1679;SDS011;838;51.794;12.258;2023-03-01T14:08:45;8.73;;;3.47;;
1679;SDS011;838;51.794;12.258;2023-03-01T14:11:24;5.50;;;3.63;;
1679;SDS011;838;51.794;12.258;2023-03-01T14:16:35;5.83;;;4.07;;
1679;SDS011;838;51.794;12.258;2023-03-01T14:19:28;5.63;;;4.50;;
1679;SDS011;838;51.794;12.258;2023-03-01T14:22:37;6.30;;;4.20;;
1679;SDS011;838;51.794;12.258;2023-03-01T14:24:49;6.80;;;3.87;;
1679;SDS011;838;51.794;12.258;2023-03-01T14:33:23;6.33;;;4.37;;
1679;SDS011;838;51.794;12.258;2023-03-01T14:36:11;4.30;;;3.40;;
1679;SDS011;838;51.794;12.258;2023-03-01T14:38:53;8.70;;;3.80;;
1679;SDS011;838;51.794;12.258;2023-03-01T14:41:24;5.60;;;4.80;;
1679;SDS011;838;51.794;12.258;2023-03-01T14:43:53;5.83;;;3.97;;
1679;SDS011;838;51.794;12.258;2023-03-01T14:46:37;6.80;;;4.20;;
1679;SDS011;838;51.794;12.258;2023-03-01T14:49:19;6.33;;;4.07;;
1679;SDS011;838;51.794;12.258;2023-03-01T14:52:03;4.33;;;3.03;;
1679;SDS011;838;51.794;12.258;2023-03-01T14:54:42;5.47;;;3.53;;
1679;SDS011;838;51.794;12.258;2023-03-01T14:57:16;5.10;;;3.80;;
1679;SDS011;838;51.794;12.258;2023-03-01T14:59:52;8.37;;;3.80;;
1679;SDS011;838;51.794;12.258;2023-03-01T15:02:27;4.37;;;3.00;;
1679;SDS011;838;51.794;12.258;2023-03-01T15:04:55;5.57;;;3.77;;
1679;SDS011;838;51.794;12.258;2023-03-01T15:07:31;7.70;;;3.87;;
1679;SDS011;838;51.794;12.258;2023-03-01T15:10:04;7.17;;;4.33;;
1679;SDS011;838;51.794;12.258;2023-03-01T15:15:18;5.23;;;3.90;;
1679;SDS011;838;51.794;12.258;2023-03-01T15:17:57;8.10;;;4.03;;
1679;SDS011;838;51.794;12.258;2023-03-01T15:20:26;7.27;;;4.50;;
1679;SDS011;838;51.794;12.258;2023-03-01T15:22:54;5.60;;;3.70;;
1679;SDS011;838;51.794;12.258;2023-03-01T15:25:26;5.37;;;3.50;;
1679;SDS011;838;51.794;12.258;2023-03-01T15:27:54;6.10;;;4.00;;
1679;SDS011;838;51.794;12.258;2023-03-01T15:30:23;5.90;;;4.20;;
1679;SDS011;838;51.794;12.258;2023-03-01T15:33:19;7.00;;;4.50;;
1679;SDS011;838;51.794;12.258;2023-03-01T15:35:48;5.50;;;4.00;;
1679;SDS011;838;51.794;12.258;2023-03-01T15:38:26;5.53;;;3.90;;
1679;SDS011;838;51.794;12.258;2023-03-01T15:41:04;7.37;;;4.20;;
1679;SDS011;838;51.794;12.258;2023-03-01T15:43:56;6.53;;;4.10;;
1679;SDS011;838;51.794;12.258;2023-03-01T15:49:26;6.13;;;4.20;;
1679;SDS011;838;51.794;12.258;2023-03-01T15:52:00;5.73;;;4.60;;
1679;SDS011;838;51.794;12.258;2023-03-01T15:54:27;7.07;;;4.47;;
1679;SDS011;838;51.794;12.258;2023-03-01T15:56:54;6.10;;;3.83;;
1679;SDS011;838;51.794;12.258;2023-03-01T15:59:50;9.13;;;3.90;;
1679;SDS011;838;51.794;12.258;2023-03-01T16:02:16;5.43;;;4.03;;
1679;SDS011;838;51.794;12.258;2023-03-01T16:04:41;6.37;;;4.00;;
1679;SDS011;838;51.794;12.258;2023-03-01T16:07:08;5.40;;;4.10;;
1679;SDS011;838;51.794;12.258;2023-03-01T16:09:43;4.63;;;3.13;;
1679;SDS011;838;51.794;12.258;2023-03-01T16:12:17;5.73;;;4.03;;
1679;SDS011;838;51.794;12.258;2023-03-01T16:14:48;4.93;;;3.70;;
1679;SDS011;838;51.794;12.258;2023-03-01T16:17:18;5.70;;;4.00;;
1679;SDS011;838;51.794;12.258;2023-03-01T16:19:46;6.20;;;3.50;;
1679;SDS011;838;51.794;12.258;2023-03-01T16:22:15;7.17;;;4.20;;
1679;SDS011;838;51.794;12.258;2023-03-01T16:24:41;6.17;;;4.17;;
1679;SDS011;838;51.794;12.258;2023-03-01T16:27:09;7.43;;;4.07;;
1679;SDS011;838;51.794;12.258;2023-03-01T16:29:35;6.87;;;4.60;;
1679;SDS011;838;51.794;12.258;2023-03-01T16:32:01;5.80;;;3.57;;
1679;SDS011;838;51.794;12.258;2023-03-01T16:34:27;6.00;;;3.70;;
1679;SDS011;838;51.794;12.258;2023-03-01T16:36:56;5.83;;;4.07;;
1679;SDS011;838;51.794;12.258;2023-03-01T16:39:38;5.83;;;4.10;;
1679;SDS011;838;51.794;12.258;2023-03-01T16:42:07;5.13;;;3.53;;
1679;SDS011;838;51.794;12.258;2023-03-01T16:44:33;6.80;;;4.63;;
1679;SDS011;838;51.794;12.258;2023-03-01T16:47:01;5.20;;;3.67;;
1679;SDS011;838;51.794;12.258;2023-03-01T16:49:27;6.83;;;4.30;;
1679;SDS011;838;51.794;12.258;2023-03-01T16:51:56;7.53;;;3.73;;
1679;SDS011;838;51.794;12.258;2023-03-01T16:54:34;4.77;;;3.50;;
1679;SDS011;838;51.794;12.258;2023-03-01T16:57:00;5.40;;;3.63;;
1679;SDS011;838;51.794;12.258;2023-03-01T16:59:35;5.73;;;3.70;;
1679;SDS011;838;51.794;12.258;2023-03-01T17:02:04;5.43;;;3.50;;
1679;SDS011;838;51.794;12.258;2023-03-01T17:04:34;3.93;;;3.17;;
1679;SDS011;838;51.794;12.258;2023-03-01T17:07:03;4.23;;;3.30;;
1679;SDS011;838;51.794;12.258;2023-03-01T17:09:38;4.60;;;3.30;;
1679;SDS011;838;51.794;12.258;2023-03-01T17:12:04;5.17;;;3.60;;
1679;SDS011;838;51.794;12.258;2023-03-01T17:14:30;6.50;;;3.90;;
1679;SDS011;838;51.794;12.258;2023-03-01T17:16:56;4.93;;;3.50;;
1679;SDS011;838;51.794;12.258;2023-03-01T17:19:22;6.27;;;3.50;;
1679;SDS011;838;51.794;12.258;2023-03-01T17:21:48;5.80;;;3.53;;
1679;SDS011;838;51.794;12.258;2023-03-01T17:24:13;5.90;;;3.80;;
1679;SDS011;838;51.794;12.258;2023-03-01T17:26:39;5.10;;;3.53;;
1679;SDS011;838;51.794;12.258;2023-03-01T17:29:05;5.27;;;3.50;;
1679;SDS011;838;51.794;12.258;2023-03-01T17:31:31;8.43;;;3.80;;
1679;SDS011;838;51.794;12.258;2023-03-01T17:33:57;6.13;;;4.23;;
1679;SDS011;838;51.794;12.258;2023-03-01T17:36:26;8.10;;;4.07;;
1679;SDS011;838;51.794;12.258;2023-03-01T17:38:51;7.40;;;4.40;;
1679;SDS011;838;51.794;12.258;2023-03-01T17:41:17;8.00;;;4.70;;
1679;SDS011;838;51.794;12.258;2023-03-01T17:44:07;5.57;;;4.17;;
1679;SDS011;838;51.794;12.258;2023-03-01T17:46:35;6.47;;;3.93;;
1679;SDS011;838;51.794;12.258;2023-03-01T17:52:13;5.13;;;3.87;;
1679;SDS011;838;51.794;12.258;2023-03-01T17:54:39;4.63;;;3.70;;
1679;SDS011;838;51.794;12.258;2023-03-01T17:57:05;6.00;;;3.57;;
1679;SDS011;838;51.794;12.258;2023-03-01T17:59:31;7.03;;;4.00;;
1679;SDS011;838;51.794;12.258;2023-03-01T18:02:19;6.00;;;4.20;;
1679;SDS011;838;51.794;12.258;2023-03-01T18:04:45;5.93;;;4.17;;
1679;SDS011;838;51.794;12.258;2023-03-01T18:07:11;7.23;;;4.13;;
1679;SDS011;838;51.794;12.258;2023-03-01T18:09:37;4.63;;;3.90;;
1679;SDS011;838;51.794;12.258;2023-03-01T18:12:02;6.43;;;3.87;;
1679;SDS011;838;51.794;12.258;2023-03-01T18:14:28;7.57;;;5.03;;
1679;SDS011;838;51.794;12.258;2023-03-01T18:16:58;8.90;;;5.63;;
1679;SDS011;838;51.794;12.258;2023-03-01T18:19:26;10.23;;;5.73;;
1679;SDS011;838;51.794;12.258;2023-03-01T18:21:52;13.60;;;8.50;;
1679;SDS011;838;51.794;12.258;2023-03-01T18:24:18;11.80;;;8.30;;
1679;SDS011;838;51.794;12.258;2023-03-01T18:26:44;11.93;;;7.23;;
1679;SDS011;838;51.794;12.258;2023-03-01T18:29:10;9.73;;;7.23;;
1679;SDS011;838;51.794;12.258;2023-03-01T18:31:35;8.90;;;5.93;;
1679;SDS011;838;51.794;12.258;2023-03-01T18:34:01;10.43;;;6.20;;
1679;SDS011;838;51.794;12.258;2023-03-01T18:36:28;8.07;;;5.23;;
1679;SDS011;838;51.794;12.258;2023-03-01T18:38:55;14.17;;;6.97;;
1679;SDS011;838;51.794;12.258;2023-03-01T18:41:25;11.23;;;6.70;;
1679;SDS011;838;51.794;12.258;2023-03-01T18:43:52;8.80;;;5.87;;
1679;SDS011;838;51.794;12.258;2023-03-01T18:46:19;11.90;;;6.60;;
1679;SDS011;838;51.794;12.258;2023-03-01T18:48:46;15.43;;;9.00;;
1679;SDS011;838;51.794;12.258;2023-03-01T18:51:16;14.53;;;8.67;;
1679;SDS011;838;51.794;12.258;2023-03-01T18:53:47;11.77;;;6.87;;
1679;SDS011;838;51.794;12.258;2023-03-01T18:56:13;17.93;;;8.57;;
1679;SDS011;838;51.794;12.258;2023-03-01T18:58:58;16.73;;;10.07;;
1679;SDS011;838;51.794;12.258;2023-03-01T19:01:54;24.67;;;11.70;;
1679;SDS011;838;51.794;12.258;2023-03-01T19:04:20;28.90;;;11.77;;
1679;SDS011;838;51.794;12.258;2023-03-01T19:06:52;23.43;;;11.10;;
1679;SDS011;838;51.794;12.258;2023-03-01T19:09:20;17.07;;;9.73;;
1679;SDS011;838;51.794;12.258;2023-03-01T19:11:52;13.33;;;8.10;;
1679;SDS011;838;51.794;12.258;2023-03-01T19:14:22;14.90;;;7.13;;
1679;SDS011;838;51.794;12.258;2023-03-01T19:16:57;13.60;;;8.30;;
1679;SDS011;838;51.794;12.258;2023-03-01T19:19:22;9.23;;;7.23;;
1679;SDS011;838;51.794;12.258;2023-03-01T19:21:48;11.00;;;7.97;;
1679;SDS011;838;51.794;12.258;2023-03-01T19:27:03;10.20;;;7.93;;
1679;SDS011;838;51.794;12.258;2023-03-01T19:29:40;14.57;;;7.20;;
1679;SDS011;838;51.794;12.258;2023-03-01T19:32:06;10.80;;;8.03;;
1679;SDS011;838;51.794;12.258;2023-03-01T19:34:35;10.50;;;7.43;;